Hlavní strana
METAR-TAF:

METAR-TAF

Letiště :

Pécs, Maďarsko

zeměpisná šířka: 46-06N, zeměpisná délka: 018-14E, výška: 201 m

Aktuální stav počasí

Zpráva byla vytvořena před 29 minutami, v 16:45 UTC
Severovýchodní vítr 8 kt
Teplota 5°C
Vlhkost vzduchu 56%
Tlak 1030 hPa
Viditelnost 10 km a více
Žádná oblačnost pod 1500 m, nevyskytují se cumulonimby.

METAR: LHPP 171645Z 04008KT CAVOK 05/M03 Q1030

Čas: 18:14 (17:14 UTC)

Předpověď počasí

Zpráva byla vytvořena před 2 hodinami a 59 minutami, v 14:15 UTC
Předpověď platná od 17 v 15 UTC do 17 v 24 UTC
Východní vítr 9 kt
Viditelnost 10 km a více
Žádná oblačnost pod 1500 m, nevyskytují se cumulonimby.
Změna
od 17 v 17 UTC do 17 v 20 UTC
Východoseverovýchodní vítr 4 kt
Dočasný
od 17 v 18 UTC do 17 v 24 UTC
Polojasno ve výšce 4000 ft
Oblačno až skoro zataženo ve výšce 6000 ft

TAF: LHPP 171415Z 1715/1724 08009KT CAVOK BECMG 1717/1720 07004KT TEMPO 1718/1724 SCT040 BKN060

Stav a předpovědi počasí z více než 4 000 letišť (zprávy METAR a TAF).

Červené a žluté tečky na mapě představují dostupné meteorologické stanice.

Když kurzor umístíte na tečku, zobrazí se název stanice.

Pak kliknutím zobrazíte stav a předpověď počasí.

Chcete-li změnit mapu, kliknutím na zelené tlačítko se znaménkem +mapu přiblížíte, kliknutím na zelené tlačítko se znaménkem – mapu oddálíte a kliknutím na zelené šipky přejdete na sousední mapy.


METAR-TAF: